createdAt,value
2018-07-07T00:00:18.245Z,95.10
2018-07-07T00:02:46.932Z,94.70
2018-07-07T00:05:15.408Z,95.30
2018-07-07T00:07:43.812Z,95.30
2018-07-07T00:10:13.281Z,95.00
2018-07-07T00:12:42.163Z,95.40
2018-07-07T00:15:12.935Z,95.40
2018-07-07T00:17:41.873Z,95.70
2018-07-07T00:20:10.318Z,96.00
2018-07-07T00:22:38.753Z,95.30
2018-07-07T00:25:11.339Z,95.70
2018-07-07T00:27:39.757Z,96.00
2018-07-07T00:30:08.130Z,95.60
2018-07-07T00:32:36.505Z,96.00
2018-07-07T00:35:04.930Z,96.20
2018-07-07T00:37:33.653Z,96.10
2018-07-07T00:40:02.157Z,95.50
2018-07-07T00:42:30.477Z,95.90
2018-07-07T00:44:58.817Z,95.90
2018-07-07T00:47:27.473Z,95.90
2018-07-07T00:49:56.346Z,95.90
2018-07-07T00:52:24.809Z,95.60
2018-07-07T00:54:53.189Z,95.70
2018-07-07T00:57:21.621Z,96.00
2018-07-07T00:59:50.106Z,96.30
2018-07-07T01:02:19.447Z,96.20
2018-07-07T01:07:17.190Z,96.60
2018-07-07T01:09:46.094Z,95.80
2018-07-07T01:12:14.902Z,96.10
2018-07-07T01:14:44.212Z,96.20
2018-07-07T01:19:40.964Z,96.00
2018-07-07T01:22:10.965Z,96.00
2018-07-07T01:24:39.822Z,95.70
2018-07-07T01:29:36.889Z,96.00
2018-07-07T01:32:05.649Z,96.20
2018-07-07T01:34:33.986Z,96.00
2018-07-07T01:37:02.301Z,96.20
2018-07-07T01:39:30.666Z,96.20
2018-07-07T01:41:58.988Z,96.20
2018-07-07T01:44:27.354Z,96.00
2018-07-07T01:46:55.814Z,96.40
2018-07-07T01:49:24.173Z,96.80
2018-07-07T01:51:52.521Z,96.80
2018-07-07T01:54:20.917Z,96.90
2018-07-07T01:56:49.242Z,96.50
2018-07-07T01:59:17.936Z,96.60
2018-07-07T02:01:46.301Z,96.80
2018-07-07T02:04:14.658Z,96.80
2018-07-07T02:06:43.213Z,96.90
2018-07-07T02:09:11.542Z,96.60
2018-07-07T02:11:39.883Z,97.00
2018-07-07T02:14:08.250Z,97.20
2018-07-07T02:16:36.658Z,97.10
2018-07-07T02:21:33.426Z,97.10
2018-07-07T02:24:02.388Z,97.20
2018-07-07T02:26:30.795Z,97.10
2018-07-07T02:31:28.438Z,97.50
2018-07-07T02:33:56.924Z,97.60
2018-07-07T02:36:25.351Z,97.60
2018-07-07T02:38:53.758Z,97.70
2018-07-07T02:41:22.262Z,97.50
2018-07-07T02:43:51.333Z,97.60
2018-07-07T02:46:19.889Z,97.90
2018-07-07T02:48:48.348Z,97.70
2018-07-07T02:51:17.802Z,98.30
2018-07-07T02:53:46.263Z,98.00
2018-07-07T02:56:15.021Z,97.70
2018-07-07T02:58:43.393Z,98.30
2018-07-07T03:01:11.845Z,98.30
2018-07-07T03:03:40.174Z,98.00
2018-07-07T03:06:08.659Z,98.10
2018-07-07T03:08:37.002Z,98.10
2018-07-07T03:11:05.459Z,98.30
2018-07-07T03:13:33.934Z,97.90
2018-07-07T03:16:02.267Z,98.10
2018-07-07T03:18:31.117Z,98.30
2018-07-07T03:20:59.707Z,98.40
2018-07-07T03:23:28.311Z,97.90
2018-07-07T03:25:56.722Z,98.40
2018-07-07T03:28:26.218Z,98.20
2018-07-07T03:30:54.626Z,98.50
2018-07-07T03:33:22.922Z,98.60
2018-07-07T03:35:51.351Z,98.10
2018-07-07T03:38:19.669Z,98.60
2018-07-07T03:40:47.990Z,98.40
2018-07-07T03:43:16.293Z,98.30
2018-07-07T03:45:44.701Z,98.40
2018-07-07T03:48:13.078Z,98.50
2018-07-07T03:50:41.415Z,98.80
2018-07-07T03:53:09.765Z,99.10
2018-07-07T03:55:38.089Z,98.90
2018-07-07T03:58:06.441Z,99.10
2018-07-07T04:00:35.393Z,98.90
2018-07-07T04:03:04.050Z,98.70
2018-07-07T04:05:32.390Z,98.70
2018-07-07T04:08:00.782Z,98.80
2018-07-07T04:10:29.119Z,98.70
2018-07-07T04:12:57.470Z,98.70
2018-07-07T04:15:25.973Z,98.90
2018-07-07T04:17:54.636Z,98.80
2018-07-07T04:20:23.338Z,98.50
2018-07-07T04:22:52.517Z,99.10
2018-07-07T04:25:21.019Z,99.30
2018-07-07T04:27:49.326Z,99.10
2018-07-07T04:30:17.787Z,98.90
2018-07-07T04:32:46.125Z,98.90
2018-07-07T04:37:42.775Z,99.10
2018-07-07T04:40:11.227Z,98.80
2018-07-07T04:42:39.597Z,98.90
2018-07-07T04:45:07.975Z,98.90
2018-07-07T04:47:36.313Z,99.10
2018-07-07T04:50:04.721Z,99.10
2018-07-07T04:52:33.078Z,99.00
2018-07-07T04:55:01.426Z,99.00
2018-07-07T04:57:29.790Z,99.00
2018-07-07T04:59:58.324Z,99.30
2018-07-07T05:04:54.846Z,98.90
2018-07-07T05:07:23.222Z,99.10
2018-07-07T05:12:20.177Z,98.80
2018-07-07T05:14:48.526Z,99.10
2018-07-07T05:17:17.196Z,98.60
2018-07-07T05:19:45.509Z,98.70
2018-07-07T05:22:13.910Z,98.40
2018-07-07T05:24:42.657Z,98.70
2018-07-07T05:27:11.286Z,98.30
2018-07-07T05:29:39.749Z,98.00
2018-07-07T05:32:08.444Z,98.00
2018-07-07T05:34:36.722Z,98.00
2018-07-07T05:37:05.102Z,98.00
2018-07-07T05:39:33.485Z,97.80
2018-07-07T05:42:01.810Z,98.00
2018-07-07T05:44:30.285Z,97.50
2018-07-07T05:46:58.635Z,97.00
2018-07-07T05:49:26.953Z,96.80
2018-07-07T05:51:55.850Z,96.50
2018-07-07T05:54:24.458Z,96.40
2018-07-07T05:56:53.025Z,96.20
2018-07-07T05:59:21.381Z,96.00
2018-07-07T06:01:49.693Z,96.30
2018-07-07T06:04:18.003Z,96.10
2018-07-07T06:09:15.085Z,95.50
2018-07-07T06:11:43.459Z,94.20
2018-07-07T06:14:11.934Z,94.10
2018-07-07T06:19:08.478Z,93.70
2018-07-07T06:21:36.913Z,93.40
2018-07-07T06:24:05.819Z,93.40
2018-07-07T06:26:34.239Z,93.70
2018-07-07T06:29:02.573Z,93.40
2018-07-07T06:31:31.094Z,93.60
2018-07-07T06:36:27.529Z,93.90
2018-07-07T06:38:56.613Z,93.60
2018-07-07T06:41:25.418Z,93.30
2018-07-07T06:43:53.867Z,93.60
2018-07-07T06:46:22.218Z,93.80
2018-07-07T06:48:50.545Z,93.30
2018-07-07T06:51:18.866Z,93.20
2018-07-07T06:53:49.494Z,93.00
2018-07-07T06:56:18.049Z,92.40
2018-07-07T06:58:46.527Z,92.30
2018-07-07T07:01:16.505Z,91.60
2018-07-07T07:03:45.971Z,91.90
2018-07-07T07:06:15.067Z,91.10
2018-07-07T07:08:44.895Z,90.30
2018-07-07T07:11:14.294Z,90.80
2018-07-07T07:13:42.985Z,90.80
2018-07-07T07:16:11.928Z,90.20
2018-07-07T07:18:40.611Z,86.80
2018-07-07T07:21:09.547Z,88.20
2018-07-07T07:23:38.838Z,87.20
2018-07-07T07:26:08.324Z,85.00
2018-07-07T07:28:39.159Z,83.30
2018-07-07T07:31:07.734Z,82.20
2018-07-07T07:33:37.050Z,81.90
2018-07-07T07:36:08.866Z,77.70
2018-07-07T07:38:38.184Z,78.80
2018-07-07T07:41:06.674Z,81.50
2018-07-07T07:43:35.034Z,78.60
2018-07-07T07:46:04.208Z,78.00
2018-07-07T07:48:32.986Z,77.50
2018-07-07T07:51:01.461Z,80.00
2018-07-07T07:53:29.828Z,76.80
2018-07-07T07:55:58.149Z,70.60
2018-07-07T07:58:26.548Z,71.30
2018-07-07T08:00:55.258Z,75.90
2018-07-07T08:03:23.641Z,79.80
2018-07-07T08:05:51.994Z,78.70
2018-07-07T08:08:21.317Z,79.50
2018-07-07T08:10:50.010Z,79.00
2018-07-07T08:13:18.393Z,75.50
2018-07-07T08:18:15.054Z,71.90
2018-07-07T08:20:44.333Z,69.50
2018-07-07T08:23:12.967Z,69.10
2018-07-07T08:25:41.282Z,62.60
2018-07-07T08:28:10.242Z,62.30
2018-07-07T08:30:38.598Z,60.30
2018-07-07T08:33:07.141Z,55.40
2018-07-07T08:35:35.881Z,57.80
2018-07-07T08:38:04.963Z,61.70
2018-07-07T08:40:33.373Z,64.00
2018-07-07T08:43:01.734Z,64.10
2018-07-07T08:45:31.067Z,64.50
2018-07-07T08:48:00.314Z,65.00
2018-07-07T08:52:57.926Z,64.70
2018-07-07T08:55:26.217Z,60.70
2018-07-07T08:57:54.598Z,58.50
2018-07-07T09:00:22.993Z,61.40
2018-07-07T09:02:51.326Z,60.90
2018-07-07T09:05:19.674Z,61.70
2018-07-07T09:07:48.273Z,63.30
2018-07-07T09:10:16.661Z,62.60
2018-07-07T09:15:14.190Z,59.70
2018-07-07T09:17:42.579Z,61.90
2018-07-07T09:20:11.157Z,62.30
2018-07-07T09:22:39.466Z,63.70
2018-07-07T09:27:40.957Z,64.70
2018-07-07T09:30:21.142Z,61.90
2018-07-07T09:32:49.536Z,63.80
2018-07-07T09:35:17.838Z,62.20
2018-07-07T09:37:46.183Z,63.70
2018-07-07T09:40:15.189Z,60.30
2018-07-07T09:42:43.582Z,60.40
2018-07-07T09:45:12.290Z,61.40
2018-07-07T09:50:09.149Z,61.40
2018-07-07T09:52:37.774Z,57.60
2018-07-07T09:55:06.163Z,59.40
2018-07-07T09:57:34.764Z,59.60
2018-07-07T10:00:03.111Z,58.60
2018-07-07T10:02:32.006Z,59.70
2018-07-07T10:05:00.615Z,59.60
2018-07-07T10:07:28.957Z,59.80
2018-07-07T10:09:57.283Z,58.90
2018-07-07T10:12:25.582Z,59.10
2018-07-07T10:14:54.131Z,57.80
2018-07-07T10:17:22.453Z,59.30
2018-07-07T10:19:51.178Z,58.50
2018-07-07T10:22:19.825Z,60.10
2018-07-07T10:24:48.206Z,58.00
2018-07-07T10:29:48.274Z,57.70
2018-07-07T10:35:09.933Z,57.80
2018-07-07T10:38:05.447Z,59.00
2018-07-07T10:40:39.921Z,57.80
2018-07-07T10:45:37.977Z,56.00
2018-07-07T10:50:51.227Z,55.80
2018-07-07T10:53:19.677Z,53.10
2018-07-07T10:58:16.114Z,54.00
2018-07-07T11:00:44.509Z,55.40
2018-07-07T11:03:14.742Z,54.20
2018-07-07T11:05:44.099Z,52.70
2018-07-07T11:08:12.518Z,53.70
2018-07-07T11:10:41.074Z,50.80
2018-07-07T11:13:10.203Z,54.50
2018-07-07T11:15:38.585Z,52.10
2018-07-07T11:18:07.067Z,52.00
2018-07-07T11:20:36.129Z,52.80
2018-07-07T11:23:08.591Z,51.90
2018-07-07T11:25:36.887Z,51.20
2018-07-07T11:28:05.256Z,50.40
2018-07-07T11:30:33.621Z,50.90
2018-07-07T11:33:04.969Z,49.90
2018-07-07T11:35:38.278Z,50.60
2018-07-07T11:38:07.609Z,51.50
2018-07-07T11:40:36.480Z,51.30
2018-07-07T11:43:05.454Z,51.20
2018-07-07T11:45:34.461Z,50.80
2018-07-07T11:48:02.970Z,49.80
2018-07-07T11:50:31.319Z,50.50
2018-07-07T11:52:59.617Z,48.40
2018-07-07T11:55:27.928Z,50.40
2018-07-07T11:57:56.572Z,49.90
2018-07-07T12:00:25.159Z,49.80
2018-07-07T12:02:53.449Z,49.90
2018-07-07T12:05:21.785Z,49.30
2018-07-07T12:08:00.713Z,47.70
2018-07-07T12:10:18.640Z,51.20
2018-07-07T12:15:15.002Z,51.00
2018-07-07T12:17:43.363Z,50.30
2018-07-07T12:20:11.994Z,51.20
2018-07-07T12:25:08.626Z,54.40
2018-07-07T12:30:05.874Z,54.90
2018-07-07T12:32:34.187Z,53.80
2018-07-07T12:35:04.415Z,53.50
2018-07-07T12:37:32.726Z,54.30
2018-07-07T12:40:01.033Z,54.10
2018-07-07T12:42:29.377Z,50.90
2018-07-07T12:44:57.866Z,55.30
2018-07-07T12:47:26.531Z,53.90
2018-07-07T12:49:54.913Z,55.60
2018-07-07T12:52:23.297Z,55.10
2018-07-07T12:54:51.649Z,57.40
2018-07-07T12:57:20.621Z,55.30
2018-07-07T12:59:58.472Z,55.10
2018-07-07T13:02:27.666Z,56.10
2018-07-07T13:04:57.131Z,56.30
2018-07-07T13:07:37.281Z,54.80
2018-07-07T13:10:05.677Z,53.70
2018-07-07T13:12:34.050Z,54.50
2018-07-07T13:15:02.397Z,56.00
2018-07-07T13:17:30.705Z,55.80
2018-07-07T13:19:59.505Z,55.30
2018-07-07T13:22:27.837Z,55.40
2018-07-07T13:24:56.558Z,52.80
2018-07-07T13:29:53.074Z,53.10
2018-07-07T13:34:49.601Z,52.20
2018-07-07T13:37:17.993Z,52.40
2018-07-07T13:39:46.349Z,51.80
2018-07-07T13:42:14.785Z,54.90
2018-07-07T13:44:43.101Z,56.60
2018-07-07T13:47:11.513Z,55.90
2018-07-07T13:49:39.889Z,54.80
2018-07-07T13:52:08.382Z,55.80
2018-07-07T14:05:09.173Z,56.50
2018-07-07T14:07:37.453Z,56.90
2018-07-07T14:10:06.086Z,59.70
2018-07-07T14:12:34.449Z,61.10
2018-07-07T14:15:02.842Z,60.60
2018-07-07T14:19:59.498Z,60.90
2018-07-07T14:22:27.874Z,61.20
2018-07-07T14:25:02.386Z,61.40
2018-07-07T14:27:30.774Z,63.00
2018-07-07T14:29:59.289Z,61.90
2018-07-07T14:32:27.617Z,63.80
2018-07-07T14:34:55.933Z,62.60
2018-07-07T14:37:24.322Z,64.00
2018-07-07T14:39:57.335Z,63.10
2018-07-07T14:42:36.937Z,62.80
2018-07-07T14:45:19.029Z,63.00
2018-07-07T14:47:49.041Z,63.50
2018-07-07T14:52:45.979Z,65.10
2018-07-07T14:55:15.054Z,65.00
2018-07-07T14:57:44.098Z,65.50
2018-07-07T15:00:16.549Z,65.00
2018-07-07T15:02:45.561Z,64.60
2018-07-07T15:05:13.890Z,65.20
2018-07-07T15:07:42.281Z,65.80
2018-07-07T15:10:11.310Z,67.00
2018-07-07T15:12:39.941Z,66.10
2018-07-07T15:15:08.505Z,67.50
2018-07-07T15:17:37.729Z,68.10
2018-07-07T15:20:06.317Z,68.30
2018-07-07T15:22:34.706Z,67.50
2018-07-07T15:25:03.131Z,66.70
2018-07-07T15:27:40.484Z,65.60
2018-07-07T15:30:09.629Z,66.20
2018-07-07T15:32:41.325Z,68.20
2018-07-07T15:35:09.833Z,68.90
2018-07-07T15:37:38.582Z,69.10
2018-07-07T15:40:07.048Z,68.60
2018-07-07T15:42:35.465Z,68.10
2018-07-07T15:45:13.124Z,69.60
2018-07-07T15:47:41.431Z,69.50
2018-07-07T15:50:09.774Z,69.20
2018-07-07T15:52:38.142Z,70.20
2018-07-07T15:55:06.501Z,70.70
2018-07-07T15:57:34.838Z,72.10
2018-07-07T16:00:03.247Z,71.90
2018-07-07T16:02:31.549Z,71.30
2018-07-07T16:04:59.963Z,71.30
2018-07-07T16:07:28.326Z,71.60
2018-07-07T16:09:56.777Z,69.20
2018-07-07T16:12:25.721Z,68.30
2018-07-07T16:14:54.084Z,69.00
2018-07-07T16:17:22.602Z,69.10
2018-07-07T16:19:51.145Z,70.00
2018-07-07T16:22:19.538Z,70.50
2018-07-07T16:24:47.881Z,70.00
2018-07-07T16:27:16.217Z,70.00
2018-07-07T16:29:44.633Z,68.80
2018-07-07T16:32:12.993Z,69.00
2018-07-07T16:34:41.501Z,69.40
2018-07-07T16:37:09.812Z,70.00
2018-07-07T16:39:39.119Z,70.90
2018-07-07T16:42:07.462Z,70.70
2018-07-07T16:44:36.925Z,72.70
2018-07-07T16:47:05.329Z,74.00
2018-07-07T16:49:33.782Z,75.00
2018-07-07T16:52:02.614Z,76.80
2018-07-07T16:54:31.062Z,77.10
2018-07-07T16:56:59.463Z,77.20
2018-07-07T16:59:29.233Z,76.70
2018-07-07T17:01:57.757Z,77.60
2018-07-07T17:04:26.309Z,78.50
2018-07-07T17:06:54.737Z,78.80
2018-07-07T17:09:23.121Z,78.50
2018-07-07T17:11:52.948Z,78.00
2018-07-07T17:14:22.365Z,77.70
2018-07-07T17:16:57.773Z,79.20
2018-07-07T17:19:26.347Z,78.70
2018-07-07T17:21:54.677Z,78.50
2018-07-07T17:24:24.001Z,78.00
2018-07-07T17:26:52.578Z,78.80
2018-07-07T17:29:20.941Z,79.80
2018-07-07T17:31:49.496Z,78.00
2018-07-07T17:34:17.841Z,78.90
2018-07-07T17:36:46.490Z,78.40
2018-07-07T17:39:14.850Z,79.20
2018-07-07T17:41:43.513Z,78.90
2018-07-07T17:44:11.866Z,79.50
2018-07-07T17:46:40.657Z,78.60
2018-07-07T17:49:09.093Z,78.50
2018-07-07T17:51:37.443Z,78.60
2018-07-07T17:54:05.818Z,78.00
2018-07-07T17:56:35.513Z,77.70
2018-07-07T18:01:32.573Z,78.20
2018-07-07T18:04:00.916Z,79.00
2018-07-07T18:06:29.185Z,78.80
2018-07-07T18:08:57.433Z,79.60
2018-07-07T18:11:25.729Z,79.30
2018-07-07T18:13:54.307Z,80.00
2018-07-07T18:16:22.575Z,79.50
2018-07-07T18:18:50.889Z,79.30
2018-07-07T18:21:19.313Z,80.30
2018-07-07T18:23:47.618Z,80.40
2018-07-07T18:26:16.872Z,80.30
2018-07-07T18:28:45.185Z,80.10
2018-07-07T18:31:13.514Z,79.70
2018-07-07T18:33:41.822Z,78.80
2018-07-07T18:36:10.296Z,77.80
2018-07-07T18:38:38.628Z,77.40
2018-07-07T18:41:07.368Z,77.60
2018-07-07T18:43:36.333Z,77.70
2018-07-07T18:46:04.739Z,75.80
2018-07-07T18:48:33.131Z,76.60
2018-07-07T18:51:01.613Z,76.20
2018-07-07T18:53:30.686Z,76.50
2018-07-07T18:55:59.111Z,76.40
2018-07-07T19:00:55.589Z,77.10
2018-07-07T19:03:24.018Z,75.60
2018-07-07T19:05:52.413Z,73.30
2018-07-07T19:08:20.867Z,73.80
2018-07-07T19:10:49.453Z,74.30
2018-07-07T19:13:17.783Z,75.10
2018-07-07T19:15:46.950Z,73.60
2018-07-07T19:18:16.175Z,74.20
2018-07-07T19:20:50.018Z,74.80
2018-07-07T19:23:23.747Z,75.20
2018-07-07T19:25:57.511Z,76.00
2018-07-07T19:28:25.964Z,76.80
2018-07-07T19:30:54.390Z,76.90
2018-07-07T19:33:29.208Z,75.90
2018-07-07T19:36:03.234Z,74.90
2018-07-07T19:38:32.740Z,76.30
2018-07-07T19:41:01.257Z,77.50
2018-07-07T19:45:58.018Z,77.80
2018-07-07T19:48:26.515Z,80.00
2018-07-07T19:50:54.945Z,80.10
2018-07-07T19:53:23.447Z,80.10
2018-07-07T19:55:51.992Z,81.90
2018-07-07T19:58:21.295Z,83.60
2018-07-07T20:00:49.724Z,85.90
2018-07-07T20:03:18.309Z,86.90
2018-07-07T20:05:46.676Z,90.00
2018-07-07T20:08:16.714Z,91.00
2018-07-07T20:10:45.088Z,91.20
2018-07-07T20:13:13.510Z,91.80
2018-07-07T20:15:53.004Z,92.30
2018-07-07T20:18:26.471Z,92.20
2018-07-07T20:22:01.874Z,93.10
2018-07-07T20:24:34.806Z,93.80
2018-07-07T20:27:08.618Z,93.90
2018-07-07T20:29:37.654Z,94.50
2018-07-07T20:32:11.475Z,94.60
2018-07-07T20:34:39.912Z,95.10
2018-07-07T20:37:08.269Z,95.10
2018-07-07T20:39:37.454Z,95.10
2018-07-07T20:42:05.903Z,95.40
2018-07-07T20:44:34.309Z,95.50
2018-07-07T20:47:02.832Z,95.70
2018-07-07T20:49:31.221Z,95.90
2018-07-07T20:51:59.558Z,96.20
2018-07-07T20:54:27.942Z,96.40
2018-07-07T20:56:56.325Z,96.60
2018-07-07T20:59:24.666Z,96.60
2018-07-07T21:01:52.980Z,96.80
2018-07-07T21:04:21.292Z,97.00
2018-07-07T21:11:45.794Z,97.40
2018-07-07T21:14:14.370Z,97.60
2018-07-07T21:16:42.834Z,98.00
2018-07-07T21:19:11.178Z,98.20
2018-07-07T21:21:39.502Z,98.10
2018-07-07T21:24:07.918Z,98.20
2018-07-07T21:26:36.227Z,98.20
2018-07-07T21:29:04.573Z,98.50
2018-07-07T21:31:32.913Z,98.40
2018-07-07T21:34:01.212Z,98.40
2018-07-07T21:36:29.594Z,98.50
2018-07-07T21:38:58.614Z,99.50
2018-07-07T21:43:54.957Z,99.10
2018-07-07T21:46:23.269Z,98.80
2018-07-07T21:48:52.365Z,99.00
2018-07-07T21:51:20.846Z,98.80
2018-07-07T21:53:50.164Z,99.00
2018-07-07T21:56:18.425Z,98.90
2018-07-07T21:58:46.769Z,99.10
2018-07-07T22:01:27.161Z,98.80
2018-07-07T22:04:00.933Z,98.90
2018-07-07T22:06:34.542Z,98.50
2018-07-07T22:09:02.883Z,98.70
2018-07-07T22:11:31.186Z,99.20
2018-07-07T22:16:27.665Z,99.70
2018-07-07T22:21:39.277Z,99.40
2018-07-07T22:24:07.569Z,99.70
2018-07-07T22:26:35.873Z,99.80
2018-07-07T22:29:04.269Z,99.90
2018-07-07T22:34:00.606Z,99.70
2018-07-07T22:36:33.965Z,99.70
2018-07-07T22:39:02.438Z,99.50
2018-07-07T22:41:40.726Z,99.90
2018-07-07T22:44:09.038Z,99.90
2018-07-07T22:46:37.347Z,99.90
2018-07-07T22:49:05.725Z,99.70
2018-07-07T22:51:34.021Z,99.90
2018-07-07T22:54:02.544Z,99.90
2018-07-07T22:56:30.865Z,99.90
2018-07-07T22:58:59.186Z,99.80
2018-07-07T23:01:27.518Z,99.80
2018-07-07T23:03:55.834Z,99.90
2018-07-07T23:06:24.175Z,99.90
2018-07-07T23:08:52.483Z,99.90
2018-07-07T23:13:48.879Z,99.90
2018-07-07T23:16:17.345Z,99.90
2018-07-07T23:18:45.643Z,99.90
2018-07-07T23:21:13.986Z,99.90
2018-07-07T23:23:42.278Z,99.90
2018-07-07T23:26:10.579Z,99.90
2018-07-07T23:28:38.890Z,99.90
2018-07-07T23:31:07.185Z,99.90
2018-07-07T23:33:35.538Z,99.90
2018-07-07T23:36:03.845Z,99.80
2018-07-07T23:38:32.166Z,99.90
2018-07-07T23:41:00.499Z,99.90
2018-07-07T23:45:56.862Z,99.90
2018-07-07T23:48:25.251Z,99.90
2018-07-07T23:50:54.173Z,99.90
2018-07-07T23:53:22.495Z,99.90
2018-07-07T23:55:50.837Z,99.90
2018-07-07T23:58:19.133Z,99.90
